createdAt,value
2019-02-21T00:03:05.995Z,51.60
2019-02-21T00:07:24.322Z,51.60
2019-02-21T00:11:42.936Z,51.70
2019-02-21T00:16:01.070Z,51.60
2019-02-21T00:20:19.233Z,51.70
2019-02-21T00:24:39.980Z,51.70
2019-02-21T00:28:57.573Z,51.80
2019-02-21T00:33:15.603Z,51.80
2019-02-21T00:37:34.206Z,51.80
2019-02-21T00:41:52.589Z,51.90
2019-02-21T00:46:10.764Z,51.80
2019-02-21T00:50:29.045Z,51.90
2019-02-21T00:54:47.429Z,52.00
2019-02-21T00:59:06.156Z,51.90
2019-02-21T01:03:24.715Z,52.00
2019-02-21T01:07:43.546Z,52.00
2019-02-21T01:12:02.107Z,52.10
2019-02-21T01:16:20.747Z,52.00
2019-02-21T01:20:39.347Z,52.10
2019-02-21T01:24:57.941Z,52.20
2019-02-21T01:29:16.413Z,52.10
2019-02-21T01:33:34.951Z,52.80
2019-02-21T01:37:53.171Z,52.10
2019-02-21T01:42:11.321Z,52.30
2019-02-21T01:46:30.226Z,52.30
2019-02-21T01:50:48.436Z,52.30
2019-02-21T01:55:09.990Z,52.30
2019-02-21T01:59:28.129Z,52.40
2019-02-21T02:03:47.239Z,52.40
2019-02-21T02:08:05.905Z,52.40
2019-02-21T02:12:24.227Z,52.40
2019-02-21T02:16:43.331Z,52.50
2019-02-21T02:21:01.688Z,53.00
2019-02-21T02:25:20.944Z,52.50
2019-02-21T02:29:39.891Z,52.60
2019-02-21T02:33:58.070Z,52.60
2019-02-21T02:38:16.719Z,52.60
2019-02-21T02:42:35.372Z,52.50
2019-02-21T02:46:54.136Z,52.60
2019-02-21T02:51:13.477Z,52.60
2019-02-21T02:55:32.059Z,52.70
2019-02-21T02:59:50.645Z,52.60
2019-02-21T03:04:09.249Z,52.70
2019-02-21T03:08:28.462Z,52.80
2019-02-21T03:12:46.583Z,52.80
2019-02-21T03:17:04.746Z,52.90
2019-02-21T03:21:23.022Z,53.10
2019-02-21T03:25:41.035Z,53.30
2019-02-21T03:29:59.993Z,53.40
2019-02-21T03:34:20.403Z,53.60
2019-02-21T03:38:39.545Z,53.50
2019-02-21T03:42:57.970Z,53.40
2019-02-21T03:47:16.719Z,53.00
2019-02-21T03:51:34.997Z,53.40
2019-02-21T03:55:53.058Z,53.50
2019-02-21T04:00:11.442Z,53.60
2019-02-21T04:04:29.885Z,53.60
2019-02-21T04:08:48.390Z,53.50
2019-02-21T04:13:07.482Z,53.50
2019-02-21T04:17:25.798Z,53.30
2019-02-21T04:21:44.616Z,53.30
2019-02-21T04:26:02.736Z,53.50
2019-02-21T04:30:20.988Z,53.50
2019-02-21T04:34:39.251Z,53.40
2019-02-21T04:38:57.634Z,53.50
2019-02-21T04:43:16.239Z,53.80
2019-02-21T04:47:34.427Z,53.80
2019-02-21T04:51:53.007Z,53.80
2019-02-21T04:56:11.122Z,53.70
2019-02-21T05:00:29.416Z,53.80
2019-02-21T05:04:47.573Z,54.00
2019-02-21T05:09:07.498Z,54.20
2019-02-21T05:13:26.264Z,54.30
2019-02-21T05:17:44.403Z,54.50
2019-02-21T05:22:03.184Z,54.60
2019-02-21T05:26:43.598Z,54.60
2019-02-21T05:31:13.264Z,54.70
2019-02-21T05:35:42.832Z,54.80
2019-02-21T05:40:19.416Z,54.90
2019-02-21T05:44:48.491Z,54.90
2019-02-21T05:49:18.590Z,54.80
2019-02-21T05:53:46.061Z,54.80
2019-02-21T05:58:09.327Z,54.80
2019-02-21T06:02:59.332Z,54.50
2019-02-21T06:07:28.533Z,54.40
2019-02-21T06:12:11.862Z,54.40
2019-02-21T06:16:52.086Z,54.20
2019-02-21T06:21:47.895Z,54.20
2019-02-21T06:26:16.178Z,54.60
2019-02-21T06:30:56.014Z,54.00
2019-02-21T06:35:14.227Z,54.00
2019-02-21T06:39:32.667Z,54.00
2019-02-21T06:43:52.744Z,54.00
2019-02-21T06:48:10.953Z,54.20
2019-02-21T06:52:29.057Z,54.20
2019-02-21T06:56:47.380Z,54.40
2019-02-21T07:01:05.937Z,55.00
2019-02-21T07:05:25.543Z,55.30
2019-02-21T07:09:44.075Z,55.30
2019-02-21T07:14:03.485Z,55.40
2019-02-21T07:18:22.159Z,55.50
2019-02-21T07:22:41.348Z,55.40
2019-02-21T07:27:00.138Z,55.40
2019-02-21T07:31:28.034Z,55.60
2019-02-21T07:35:39.068Z,55.70
2019-02-21T07:39:58.840Z,55.70
2019-02-21T07:44:17.539Z,55.80
2019-02-21T07:48:36.605Z,56.00
2019-02-21T07:53:02.419Z,56.50
2019-02-21T07:57:16.290Z,56.20
2019-02-21T08:01:35.188Z,56.60
2019-02-21T08:05:54.069Z,57.10
2019-02-21T08:10:12.568Z,57.00
2019-02-21T08:14:30.785Z,57.20
2019-02-21T08:18:49.402Z,57.20
2019-02-21T08:23:10.895Z,56.80
2019-02-21T08:27:29.304Z,56.80
2019-02-21T08:31:49.287Z,56.70
2019-02-21T08:36:08.487Z,56.90
2019-02-21T08:40:26.560Z,57.10
2019-02-21T08:44:45.360Z,57.50
2019-02-21T08:49:03.774Z,56.60
2019-02-21T08:53:22.364Z,56.80
2019-02-21T08:57:41.422Z,56.80
2019-02-21T09:02:00.147Z,56.70
2019-02-21T09:06:20.005Z,56.80
2019-02-21T09:10:38.691Z,59.40
2019-02-21T09:14:57.391Z,59.90
2019-02-21T09:19:15.500Z,58.40
2019-02-21T09:23:34.936Z,57.00
2019-02-21T09:27:54.768Z,56.10
2019-02-21T09:32:12.871Z,55.60
2019-02-21T09:36:31.571Z,55.40
2019-02-21T09:40:51.520Z,55.20
2019-02-21T09:45:14.997Z,55.50
2019-02-21T09:49:33.141Z,56.00
2019-02-21T09:53:51.948Z,56.30
2019-02-21T09:58:09.947Z,58.50
2019-02-21T10:02:28.163Z,61.90
2019-02-21T10:06:46.369Z,64.70
2019-02-21T10:11:05.129Z,66.10
2019-02-21T10:15:23.395Z,66.40
2019-02-21T10:19:41.503Z,67.40
2019-02-21T10:24:00.054Z,65.70
2019-02-21T10:28:18.603Z,64.60
2019-02-21T10:32:36.869Z,59.80
2019-02-21T10:36:55.439Z,56.90
2019-02-21T10:41:13.591Z,55.20
2019-02-21T10:45:31.891Z,54.70
2019-02-21T10:49:50.526Z,54.80
2019-02-21T10:54:08.636Z,56.20
2019-02-21T10:58:26.998Z,55.40
2019-02-21T11:02:46.968Z,55.10
2019-02-21T11:07:05.266Z,54.60
2019-02-21T11:11:23.466Z,55.40
2019-02-21T11:15:42.228Z,54.60
2019-02-21T11:20:00.671Z,54.30
2019-02-21T11:24:22.045Z,51.90
2019-02-21T11:28:42.466Z,52.00
2019-02-21T11:33:00.644Z,53.60
2019-02-21T11:37:19.383Z,54.80
2019-02-21T11:41:37.957Z,55.10
2019-02-21T11:45:57.645Z,54.70
2019-02-21T11:50:18.491Z,52.60
2019-02-21T11:54:38.363Z,50.90
2019-02-21T11:58:56.864Z,50.60
2019-02-21T12:03:15.453Z,51.10
2019-02-21T12:07:33.605Z,51.40
2019-02-21T12:11:52.725Z,52.20
2019-02-21T12:16:11.103Z,52.60
2019-02-21T12:20:29.451Z,52.10
2019-02-21T12:24:49.006Z,50.80
2019-02-21T12:29:07.153Z,50.90
2019-02-21T12:33:25.898Z,49.50
2019-02-21T12:37:44.201Z,48.90
2019-02-21T12:42:02.313Z,48.30
2019-02-21T12:46:20.599Z,47.90
2019-02-21T12:50:44.352Z,47.50
2019-02-21T12:54:59.006Z,47.00
2019-02-21T12:59:17.548Z,46.90
2019-02-21T13:03:35.773Z,46.90
2019-02-21T13:07:54.193Z,47.10
2019-02-21T13:12:12.195Z,47.10
2019-02-21T13:16:30.436Z,47.00
2019-02-21T13:20:48.606Z,47.00
2019-02-21T13:25:07.448Z,47.00
2019-02-21T13:29:25.655Z,46.80
2019-02-21T13:33:44.118Z,46.90
2019-02-21T13:38:02.759Z,47.20
2019-02-21T13:42:21.070Z,47.00
2019-02-21T13:46:41.412Z,47.20
2019-02-21T13:51:00.103Z,47.60
2019-02-21T13:55:18.254Z,47.50
2019-02-21T13:59:36.468Z,47.50
2019-02-21T14:03:56.648Z,47.30
2019-02-21T14:08:15.366Z,47.10
2019-02-21T14:12:34.597Z,47.10
2019-02-21T14:16:53.006Z,46.40
2019-02-21T14:21:11.609Z,46.90
2019-02-21T14:25:40.352Z,46.70
2019-02-21T14:29:50.640Z,46.60
2019-02-21T14:34:09.003Z,46.50
2019-02-21T14:38:28.599Z,46.60
2019-02-21T14:42:46.983Z,46.70
2019-02-21T14:47:07.925Z,46.70
2019-02-21T14:51:25.514Z,46.40
2019-02-21T14:55:44.472Z,46.50
2019-02-21T15:00:02.839Z,46.70
2019-02-21T15:04:21.127Z,46.80
2019-02-21T15:08:39.629Z,46.80
2019-02-21T15:12:58.057Z,47.40
2019-02-21T15:17:18.612Z,46.50
2019-02-21T15:21:37.168Z,46.60
2019-02-21T15:25:55.543Z,46.60
2019-02-21T15:30:17.567Z,46.60
2019-02-21T15:34:35.693Z,46.60
2019-02-21T15:38:56.934Z,46.50
2019-02-21T15:43:15.317Z,46.50
2019-02-21T15:47:33.968Z,46.60
2019-02-21T15:51:53.145Z,46.50
2019-02-21T15:56:11.368Z,46.60
2019-02-21T16:00:29.549Z,46.80
2019-02-21T16:04:48.114Z,46.80
2019-02-21T16:09:16.238Z,46.80
2019-02-21T16:13:29.196Z,46.80
2019-02-21T16:17:47.796Z,46.80
2019-02-21T16:22:07.143Z,46.80
2019-02-21T16:26:25.261Z,46.70
2019-02-21T16:30:43.633Z,46.60
2019-02-21T16:35:02.319Z,46.50
2019-02-21T16:39:23.560Z,46.40
2019-02-21T16:43:40.947Z,46.30
2019-02-21T16:47:59.762Z,46.40
2019-02-21T16:52:18.668Z,46.30
2019-02-21T16:56:36.806Z,46.50
2019-02-21T17:00:56.857Z,46.50
2019-02-21T17:05:15.630Z,46.60
2019-02-21T17:09:33.906Z,46.60
2019-02-21T17:13:52.484Z,46.70
2019-02-21T17:18:10.647Z,46.70
2019-02-21T17:22:29.213Z,46.80
2019-02-21T17:26:47.896Z,46.70
2019-02-21T17:31:06.457Z,46.70
2019-02-21T17:35:24.790Z,46.80
2019-02-21T17:39:42.909Z,47.00
2019-02-21T17:44:01.691Z,47.10
2019-02-21T17:48:20.722Z,47.30
2019-02-21T17:52:39.329Z,47.50
2019-02-21T17:56:57.843Z,47.70
2019-02-21T18:01:16.158Z,47.90
2019-02-21T18:05:41.334Z,48.00
2019-02-21T18:10:00.223Z,48.20
2019-02-21T18:14:18.509Z,48.30
2019-02-21T18:18:36.613Z,48.40
2019-02-21T18:22:54.730Z,48.60
2019-02-21T18:27:13.012Z,48.60
2019-02-21T18:31:32.419Z,48.70
2019-02-21T18:35:50.684Z,48.60
2019-02-21T18:40:17.281Z,48.70
2019-02-21T18:44:31.718Z,48.80
2019-02-21T18:48:50.377Z,48.90
2019-02-21T18:53:08.689Z,48.90
2019-02-21T18:57:26.926Z,49.00
2019-02-21T19:01:47.784Z,49.20
2019-02-21T19:06:06.763Z,49.30
2019-02-21T19:10:25.630Z,49.40
2019-02-21T19:14:44.031Z,49.40
2019-02-21T19:19:02.712Z,49.50
2019-02-21T19:23:21.211Z,50.30
2019-02-21T19:27:40.226Z,49.60
2019-02-21T19:31:58.774Z,49.70
2019-02-21T19:36:16.955Z,49.70
2019-02-21T19:40:35.547Z,49.70
2019-02-21T19:44:54.177Z,49.70
2019-02-21T19:49:12.279Z,49.70
2019-02-21T19:53:31.917Z,49.80
2019-02-21T19:57:50.322Z,49.80
2019-02-21T20:02:08.609Z,50.00
2019-02-21T20:06:26.763Z,49.80
2019-02-21T20:10:45.735Z,49.80
2019-02-21T20:15:04.174Z,49.90
2019-02-21T20:19:22.452Z,49.90
2019-02-21T20:23:41.087Z,49.80
2019-02-21T20:27:59.665Z,49.80
2019-02-21T20:32:17.831Z,49.90
2019-02-21T20:36:36.366Z,49.90
2019-02-21T20:40:54.703Z,49.90
2019-02-21T20:45:13.312Z,49.80
2019-02-21T20:49:32.662Z,49.90
2019-02-21T20:53:51.066Z,50.00
2019-02-21T20:58:11.691Z,50.00
2019-02-21T21:02:30.712Z,50.10
2019-02-21T21:06:49.891Z,50.20
2019-02-21T21:11:08.045Z,50.20
2019-02-21T21:15:26.440Z,50.20
2019-02-21T21:19:45.155Z,50.20
2019-02-21T21:24:03.448Z,50.50
2019-02-21T21:28:22.289Z,50.30
2019-02-21T21:32:40.547Z,50.30
2019-02-21T21:36:58.745Z,50.30
2019-02-21T21:41:17.440Z,50.40
2019-02-21T21:45:35.602Z,50.30
2019-02-21T21:49:54.565Z,50.30
2019-02-21T21:54:12.777Z,50.30
2019-02-21T21:58:31.449Z,50.30
2019-02-21T22:02:49.899Z,50.80
2019-02-21T22:07:08.028Z,50.30
2019-02-21T22:11:26.371Z,50.30
2019-02-21T22:15:44.757Z,50.30
2019-02-21T22:20:03.330Z,50.40
2019-02-21T22:24:22.402Z,50.30
2019-02-21T22:28:40.862Z,50.40
2019-02-21T22:32:59.036Z,50.40
2019-02-21T22:37:17.308Z,50.40
2019-02-21T22:41:35.622Z,50.40
2019-02-21T22:45:53.935Z,50.40
2019-02-21T22:50:15.340Z,50.30
2019-02-21T22:54:34.782Z,50.40
2019-02-21T22:58:53.393Z,50.40
2019-02-21T23:03:11.742Z,50.60
2019-02-21T23:07:48.623Z,50.70
2019-02-21T23:12:07.066Z,50.90
2019-02-21T23:16:25.332Z,50.70
2019-02-21T23:20:43.540Z,50.70
2019-02-21T23:25:02.094Z,50.90
2019-02-21T23:29:20.348Z,50.80
2019-02-21T23:33:44.930Z,50.80
2019-02-21T23:38:03.035Z,50.80
2019-02-21T23:42:22.696Z,50.80
2019-02-21T23:46:40.842Z,50.90
2019-02-21T23:50:59.106Z,50.80
2019-02-21T23:55:17.315Z,50.90
2019-02-21T23:59:35.658Z,50.90
